aviador You're here:

KBTL Decoded Metar

BATTLE CREEK in MI, USA
Report Time2018-01-19 16:53:00
UTC Time2018-01-19 17:18:30
Flight Rules vfr VFR
Wind220° at 15 Gusting to 20 kt
W.Decomp.*RWY 23: 14.9 kt HW 1.6 kt LCW
RWY 31: 1.0 kt HW 15 kt LCW
W.Rank220° ranks 3
Current wind is above 220° avg. (9.4)
Visibility9999 m
Phenomena:N/A
Clouds:N/A
Expected CloudBase > 2,400 ft AGL from Temp-Dew spread
CeilingNone
Temp-1°C (ISA -14)
Dew Point-7°C (64% RH)
AAT-9.2°C
QNH1012 hPa
Density Alt-686 ft
Elevation951 ft
Report Wrong Elevation
Raw Report
METAR KBTL 191653Z 22015G20KT 10SM CLR M01/M07 A2989 RMK AO2 SLP133
T10061072=

Extra information for KBTL:More info

Metar Taf Metar & Taf Last 4 Metars F.Rules Stats Wind Profile Meteogram Temp Stats Airport Information Weather charts Add Link Nearby VenuesMetar ALERT Operation Metar Decoded Social comments

AIRNAV info for KBTL